This is the latest recevied weather packets stored in our database for station/object K0UND-1. If no packets are shown the sender has not sent any weather packets the latest 10 day(s).
| Time | Temp. | Humidity | Pressure | Rain* | Wind** | Luminosity | Snow |
|---|---|---|---|---|---|---|---|
| 1777464010 | 1.11° C | 75% | 1019.3 hPa | 0 mm | - | - | - |
| 1777460407 | 2.22° C | 69% | 1019.3 hPa | 0 mm | - | - | - |
| 1777456806 | 1.11° C | 75% | 1019 hPa | 0 mm | - | - | - |
| 1777453208 | 2.22° C | 69% | 1019 hPa | 0 mm | - | - | - |
| 1777449610 | 2.22° C | 64% | 1019.3 hPa | 0 mm | - | - | - |
| 1777446011 | 2.22° C | 69% | 1019.6 hPa | 0 mm | - | - | - |
| 1777442417 | 2.78° C | 60% | 1019.6 hPa | 0 mm | - | - | - |
| 1777438811 | 3.89° C | 56% | 1019.6 hPa | 0 mm | - | - | - |
| 1777435205 | 3.89° C | 56% | 1019.3 hPa | 0 mm | - | - | - |
| 1777431605 | 2.78° C | 65% | 1019.3 hPa | 0 mm | - | - | - |
| 1777428011 | 2.78° C | 60% | 1018.3 hPa | 0 mm | - | - | - |
| 1777424410 | 7.22° C | 42% | 1017.9 hPa | 0 mm | - | - | - |
| 1777420807 | 7.78° C | 39% | 1017.9 hPa | 0 mm | - | - | - |
| 1777417204 | 7.78° C | 37% | 1017.6 hPa | 0 mm | - | - | - |
| 1777413613 | 7.22° C | 39% | 1017.6 hPa | 0 mm | - | - | - |
| 1777410006 | 7.22° C | 39% | 1017.9 hPa | 0 mm | - | - | - |
| 1777406407 | 7.78° C | 34% | 1017.9 hPa | 0 mm | - | - | - |
| 1777402805 | 7.78° C | 34% | 1017.9 hPa | 0 mm | - | - | - |
| 1777399208 | 7.22° C | 39% | 1018.3 hPa | 0 mm | - | - | - |
| 1777395605 | 7.22° C | 39% | 1018.3 hPa | 0 mm | - | - | - |
| 1777392009 | 6.11° C | 42% | 1018.3 hPa | 0 mm | - | - | - |
| 1777388407 | 3.89° C | 48% | 1017.9 hPa | 0 mm | - | - | - |
| 1777384815 | 2.78° C | 56% | 1017.3 hPa | 0 mm | - | - | - |
| 1777381207 | 1.11° C | 69% | 1016.9 hPa | 0 mm | - | - | - |
| 1777377607 | -2.22° C | 80% | 1015.9 hPa | 0 mm | - | - | - |
* Rain latest hour (hover to see other rain measurements)
** Current wind speed in m/s (hover to see current wind gust speed)